Time,TemperatureF,DewpointF,PressureIn,WindDirection,WindDirectionDegrees,WindSpeedMPH,WindSpeedGustMPH,Humidity,HourlyPrecipIn,Conditions,Clouds,dailyrainin,SolarRadiationWatts/m^2,SoftwareType,DateUTC
2013-01-09 00:00:00,30.3,26.3,30.15,South,188,5.0,17.0,85,0.00,,OVC075,0.00,0.00,VWS V14.01,2013-01-09 07:00:00,
2013-01-09 00:30:00,31.3,27.0,30.14,ESE,103,3.0,11.0,84,0.00,,OVC075,0.00,0.00,VWS V14.01,2013-01-09 07:30:00,
2013-01-09 01:00:00,30.9,25.5,30.14,East,88,3.0,9.0,80,0.00,,OVC075,0.00,0.00,VWS V14.01,2013-01-09 08:00:00,
2013-01-09 01:30:00,30.2,24.5,30.15,SSW,203,3.0,14.0,79,0.00,,OVC075,0.00,0.00,VWS V14.01,2013-01-09 08:30:00,
2013-01-09 02:00:00,27.1,22.4,30.16,SSW,196,1.0,15.0,82,0.00,,OVC075,0.00,0.00,VWS V14.01,2013-01-09 09:00:00,
2013-01-09 02:30:00,26.4,22.0,30.17,ENE,57,1.0,6.0,83,0.00,,OVC075,0.00,0.00,VWS V14.01,2013-01-09 09:30:00,
2013-01-09 03:00:00,24.8,21.2,30.16,SW,228,3.0,8.0,86,0.00,,OVC075,0.00,0.00,VWS V14.01,2013-01-09 10:00:00,
2013-01-09 03:30:00,26.7,21.7,30.15,South,186,1.0,10.0,81,0.00,,OVC075,0.00,0.00,VWS V14.01,2013-01-09 10:30:00,
2013-01-09 04:00:00,23.6,19.2,30.16,WSW,250,2.0,4.0,83,0.00,,OVC075,0.00,0.00,VWS V14.01,2013-01-09 11:00:00,
2013-01-09 04:30:00,20.7,17.2,30.17,West,263,1.0,4.0,86,0.00,,OVC075,0.00,0.00,VWS V14.01,2013-01-09 11:30:00,
2013-01-09 05:00:00,20.6,17.9,30.16,West,269,2.0,4.0,89,0.00,,OVC075,0.00,0.00,VWS V14.01,2013-01-09 12:00:00,
2013-01-09 05:30:00,19.6,16.9,30.17,WSW,252,0.0,5.0,89,0.00,,OVC075,0.00,0.00,VWS V14.01,2013-01-09 12:30:00,
2013-01-09 06:00:00,19.9,17.2,30.18,SSW,212,1.0,6.0,89,0.00,,OVC075,0.00,0.00,VWS V14.01,2013-01-09 13:00:00,
2013-01-09 06:30:00,21.4,18.4,30.17,WNW,294,1.0,7.0,88,0.00,,OVC075,0.00,0.00,VWS V14.01,2013-01-09 13:30:00,
2013-01-09 07:00:00,20.9,17.9,30.17,WSW,246,4.0,5.0,88,0.00,,OVC075,0.00,0.00,VWS V14.01,2013-01-09 14:00:00,
2013-01-09 07:30:00,27.9,21.6,30.16,WNW,303,4.0,14.0,77,0.00,,OVC075,0.00,7.00,VWS V14.01,2013-01-09 14:30:00,
2013-01-09 08:00:00,30.0,23.0,30.16,SSW,201,12.0,18.0,75,0.00,,OVC075,0.00,58.00,VWS V14.01,2013-01-09 15:00:00,
2013-01-09 08:30:00,34.7,25.2,30.15,SSW,205,2.0,18.0,68,0.00,,OVC075,0.00,134.00,VWS V14.01,2013-01-09 15:30:00,
2013-01-09 09:00:00,36.2,26.3,30.14,NNE,32,1.0,7.0,67,0.00,,OVC075,0.00,199.00,VWS V14.01,2013-01-09 16:00:00,
2013-01-09 09:30:00,39.7,29.3,30.14,NW,318,0.0,4.0,66,0.00,,OVC075,0.00,264.00,VWS V14.01,2013-01-09 16:30:00,
2013-01-09 10:00:00,44.1,29.9,30.12,SSE,162,2.0,10.0,57,0.00,,OVC075,0.00,315.00,VWS V14.01,2013-01-09 17:00:00,
2013-01-09 10:30:00,45.6,30.4,30.11,South,182,7.0,17.0,55,0.00,,OVC075,0.00,355.00,VWS V14.01,2013-01-09 17:30:00,
2013-01-09 11:00:00,44.4,31.4,30.11,South,173,16.0,19.0,60,0.00,,OVC075,0.00,369.00,VWS V14.01,2013-01-09 18:00:00,
2013-01-09 11:30:00,47.3,32.8,30.08,South,182,8.0,21.0,57,0.00,,OVC075,0.00,381.00,VWS V14.01,2013-01-09 18:30:00,
2013-01-09 12:00:00,50.9,33.4,30.04,South,188,9.0,22.0,51,0.00,,OVC075,0.00,383.00,VWS V14.01,2013-01-09 19:00:00,
2013-01-09 12:30:00,54.0,32.6,30.02,SSW,192,10.0,18.0,44,0.00,,OVC075,0.00,373.00,VWS V14.01,2013-01-09 19:30:00,
2013-01-09 13:00:00,56.5,30.6,30.00,SSW,200,12.0,18.0,37,0.00,,OVC075,0.00,357.00,VWS V14.01,2013-01-09 20:00:00,
2013-01-09 13:30:00,56.3,33.5,30.01,SSE,165,12.0,20.0,42,0.00,,OVC075,0.00,318.00,VWS V14.01,2013-01-09 20:30:00,
2013-01-09 14:00:00,57.1,32.4,29.99,South,176,9.0,19.0,39,0.00,,OVC075,0.00,272.00,VWS V14.01,2013-01-09 21:00:00,
2013-01-09 14:30:00,58.8,30.5,29.99,SSE,149,8.0,15.0,34,0.00,,OVC075,0.00,218.00,VWS V14.01,2013-01-09 21:30:00,
2013-01-09 15:00:00,56.8,32.1,29.99,South,169,5.0,14.0,39,0.00,,OVC075,0.00,158.00,VWS V14.01,2013-01-09 22:00:00,
2013-01-09 15:30:00,55.5,29.7,29.98,SSW,203,15.0,25.0,37,0.00,,OVC075,0.00,93.00,VWS V14.01,2013-01-09 22:30:00,
2013-01-09 16:00:00,55.4,28.9,29.98,SW,219,10.0,24.0,36,0.00,,OVC075,0.00,32.00,VWS V14.01,2013-01-09 23:00:00,
2013-01-09 16:30:00,53.5,27.9,30.02,SW,217,12.0,18.0,37,0.00,,OVC075,0.00,5.00,VWS V14.01,2013-01-09 23:30:00,
2013-01-09 17:00:00,52.3,28.7,30.01,SSW,192,6.0,18.0,40,0.00,,OVC075,0.00,0.00,VWS V14.01,2013-01-10 00:00:00,
2013-01-09 17:30:00,48.9,27.4,30.02,WSW,248,0.0,14.0,43,0.00,,OVC075,0.00,0.00,VWS V14.01,2013-01-10 00:30:00,
2013-01-09 18:00:00,44.3,26.4,30.03,ENE,74,5.0,6.0,49,0.00,,OVC075,0.00,0.00,VWS V14.01,2013-01-10 01:00:00,
2013-01-09 18:30:00,40.6,27.8,30.02,South,187,6.0,13.0,60,0.00,,OVC075,0.00,0.00,VWS V14.01,2013-01-10 01:30:00,
2013-01-09 19:00:00,42.3,30.2,29.99,SSE,163,13.0,16.0,62,0.00,,OVC075,0.00,0.00,VWS V14.01,2013-01-10 02:00:00,
2013-01-09 19:30:00,41.4,29.8,29.94,South,169,7.0,21.0,63,0.00,,OVC075,0.00,0.00,VWS V14.01,2013-01-10 02:30:00,
2013-01-09 20:00:00,38.9,28.9,29.95,South,177,15.0,18.0,67,0.00,,OVC075,0.00,0.00,VWS V14.01,2013-01-10 03:00:00,
2013-01-09 20:30:00,39.3,29.3,29.92,SE,142,5.0,15.0,67,0.00,,OVC075,0.00,0.00,VWS V14.01,2013-01-10 03:30:00,
2013-01-09 21:00:00,39.8,29.4,29.89,South,172,15.0,19.0,66,0.00,,OVC075,0.00,0.00,VWS V14.01,2013-01-10 04:00:00,
2013-01-09 21:30:00,39.7,28.5,29.86,SSE,168,9.0,20.0,64,0.00,,OVC075,0.00,0.00,VWS V14.01,2013-01-10 04:30:00,
2013-01-09 22:00:00,40.0,27.6,29.85,South,185,16.0,18.0,61,0.00,,OVC075,0.00,0.00,VWS V14.01,2013-01-10 05:00:00,
2013-01-09 22:30:00,40.6,27.0,29.84,South,184,16.0,20.0,58,0.00,,OVC075,0.00,0.00,VWS V14.01,2013-01-10 05:30:00,
2013-01-09 23:00:00,41.4,26.5,29.82,South,169,13.0,24.0,55,0.00,,OVC075,0.00,0.00,VWS V14.01,2013-01-10 06:00:00,
2013-01-09 23:23:00,38.7,25.6,29.80,South,175,10.0,24.0,59,0.00,,CLR,0.00,0.00,VWS V14.01,2013-01-10 06:23:00,
2013-01-09 23:28:00,37.9,25.7,29.80,South,189,19.0,24.0,61,0.00,,CLR,0.00,0.00,VWS V14.01,2013-01-10 06:28:00,
2013-01-09 23:30:00,37.9,25.7,29.80,South,184,16.0,24.0,61,0.00,,OVC075,0.00,0.00,VWS V14.01,2013-01-10 06:30:00,
2013-01-09 23:33:00,38.0,25.8,29.80,SSE,160,15.0,23.0,61,0.00,,CLR,0.00,0.00,VWS V14.01,2013-01-10 06:33:00,
2013-01-09 23:38:00,38.3,25.6,29.80,SSE,161,16.0,27.0,60,0.00,,CLR,0.00,0.00,VWS V14.01,2013-01-10 06:38:00,
2013-01-09 23:43:00,38.0,25.4,29.79,South,173,15.0,27.0,60,0.00,,CLR,0.00,0.00,VWS V14.01,2013-01-10 06:43:00,
2013-01-09 23:48:00,38.4,25.3,29.79,South,191,13.0,27.0,59,0.00,,CLR,0.00,0.00,VWS V14.01,2013-01-10 06:48:00,
2013-01-09 23:53:00,37.8,24.8,29.79,South,188,11.0,27.0,59,0.00,,CLR,0.00,0.00,VWS V14.01,2013-01-10 06:53:00,
2013-01-09 23:58:00,37.7,25.1,29.79,South,176,12.0,27.0,60,0.00,,CLR,0.00,0.00,VWS V14.01,2013-01-10 06:58:00,